sensor_id;sensor_type;location;lat;lon;timestamp;temperature;humidity
7216;DHT22;3649;48.798;9.798;2023-05-02T00:01:19;15.00;99.90
7216;DHT22;3649;48.798;9.798;2023-05-02T00:03:46;15.00;99.90
7216;DHT22;3649;48.798;9.798;2023-05-02T00:06:13;14.90;99.90
7216;DHT22;3649;48.798;9.798;2023-05-02T00:08:40;14.90;99.90
7216;DHT22;3649;48.798;9.798;2023-05-02T00:11:07;14.80;99.90
7216;DHT22;3649;48.798;9.798;2023-05-02T00:13:34;14.90;99.90
7216;DHT22;3649;48.798;9.798;2023-05-02T00:16:00;14.80;99.90
7216;DHT22;3649;48.798;9.798;2023-05-02T00:18:27;14.80;99.90
7216;DHT22;3649;48.798;9.798;2023-05-02T00:20:54;14.80;99.90
7216;DHT22;3649;48.798;9.798;2023-05-02T00:23:22;14.90;99.90
7216;DHT22;3649;48.798;9.798;2023-05-02T00:25:49;14.70;99.90
7216;DHT22;3649;48.798;9.798;2023-05-02T00:28:16;14.60;99.90
7216;DHT22;3649;48.798;9.798;2023-05-02T00:30:44;14.70;99.90
7216;DHT22;3649;48.798;9.798;2023-05-02T00:33:12;14.70;99.90
7216;DHT22;3649;48.798;9.798;2023-05-02T00:35:40;14.60;99.90
7216;DHT22;3649;48.798;9.798;2023-05-02T00:38:07;14.60;99.90
7216;DHT22;3649;48.798;9.798;2023-05-02T00:40:48;14.60;99.90
7216;DHT22;3649;48.798;9.798;2023-05-02T00:43:16;14.50;99.90
7216;DHT22;3649;48.798;9.798;2023-05-02T00:45:44;14.50;99.90
7216;DHT22;3649;48.798;9.798;2023-05-02T00:48:12;14.50;99.90
7216;DHT22;3649;48.798;9.798;2023-05-02T00:50:41;14.50;99.90
7216;DHT22;3649;48.798;9.798;2023-05-02T00:53:09;14.60;99.90
7216;DHT22;3649;48.798;9.798;2023-05-02T00:55:36;14.60;99.90
7216;DHT22;3649;48.798;9.798;2023-05-02T00:58:07;14.50;99.90
7216;DHT22;3649;48.798;9.798;2023-05-02T01:06:26;14.40;99.90
7216;DHT22;3649;48.798;9.798;2023-05-02T01:11:47;14.40;99.90
7216;DHT22;3649;48.798;9.798;2023-05-02T01:14:17;14.40;99.90
7216;DHT22;3649;48.798;9.798;2023-05-02T01:16:46;14.30;99.90
7216;DHT22;3649;48.798;9.798;2023-05-02T01:19:31;14.40;99.90
7216;DHT22;3649;48.798;9.798;2023-05-02T01:22:03;14.40;99.90
7216;DHT22;3649;48.798;9.798;2023-05-02T01:24:37;14.40;99.90
7216;DHT22;3649;48.798;9.798;2023-05-02T01:29:59;14.40;99.90
7216;DHT22;3649;48.798;9.798;2023-05-02T01:32:32;14.40;99.90
7216;DHT22;3649;48.798;9.798;2023-05-02T01:35:00;14.30;99.90
7216;DHT22;3649;48.798;9.798;2023-05-02T01:37:32;14.30;99.90
7216;DHT22;3649;48.798;9.798;2023-05-02T01:40:00;14.30;99.90
7216;DHT22;3649;48.798;9.798;2023-05-02T01:42:30;14.30;99.90
7216;DHT22;3649;48.798;9.798;2023-05-02T01:44:58;14.30;99.90
7216;DHT22;3649;48.798;9.798;2023-05-02T01:47:26;14.30;99.90
7216;DHT22;3649;48.798;9.798;2023-05-02T01:49:56;14.20;99.90
7216;DHT22;3649;48.798;9.798;2023-05-02T01:52:24;14.20;99.90
7216;DHT22;3649;48.798;9.798;2023-05-02T01:54:54;14.10;99.90
7216;DHT22;3649;48.798;9.798;2023-05-02T01:57:23;14.20;99.90
7216;DHT22;3649;48.798;9.798;2023-05-02T01:59:53;14.10;99.90
7216;DHT22;3649;48.798;9.798;2023-05-02T02:02:22;14.10;99.90
7216;DHT22;3649;48.798;9.798;2023-05-02T02:04:50;14.20;99.90
7216;DHT22;3649;48.798;9.798;2023-05-02T02:07:18;14.20;99.90
7216;DHT22;3649;48.798;9.798;2023-05-02T02:09:46;14.10;99.90
7216;DHT22;3649;48.798;9.798;2023-05-02T02:12:26;14.10;99.90
7216;DHT22;3649;48.798;9.798;2023-05-02T02:15:05;14.10;99.90
7216;DHT22;3649;48.798;9.798;2023-05-02T02:17:48;14.10;99.90
7216;DHT22;3649;48.798;9.798;2023-05-02T02:20:16;14.10;99.90
7216;DHT22;3649;48.798;9.798;2023-05-02T02:22:43;14.10;99.90
7216;DHT22;3649;48.798;9.798;2023-05-02T02:25:14;14.10;99.90
7216;DHT22;3649;48.798;9.798;2023-05-02T02:27:41;14.00;99.90
7216;DHT22;3649;48.798;9.798;2023-05-02T02:30:09;14.10;99.90
7216;DHT22;3649;48.798;9.798;2023-05-02T02:32:36;14.00;99.90
7216;DHT22;3649;48.798;9.798;2023-05-02T02:35:04;14.00;99.90
7216;DHT22;3649;48.798;9.798;2023-05-02T02:37:34;14.00;99.90
7216;DHT22;3649;48.798;9.798;2023-05-02T02:40:20;14.00;99.90
7216;DHT22;3649;48.798;9.798;2023-05-02T02:45:57;14.00;99.90
7216;DHT22;3649;48.798;9.798;2023-05-02T02:51:30;13.90;99.90
7216;DHT22;3649;48.798;9.798;2023-05-02T02:54:32;13.80;99.90
7216;DHT22;3649;48.798;9.798;2023-05-02T02:57:27;13.90;99.90
7216;DHT22;3649;48.798;9.798;2023-05-02T03:00:12;13.90;99.90
7216;DHT22;3649;48.798;9.798;2023-05-02T03:02:42;13.90;99.90
7216;DHT22;3649;48.798;9.798;2023-05-02T03:05:12;13.90;99.90
7216;DHT22;3649;48.798;9.798;2023-05-02T03:07:40;13.80;99.90
7216;DHT22;3649;48.798;9.798;2023-05-02T03:10:07;13.80;99.90
7216;DHT22;3649;48.798;9.798;2023-05-02T03:12:34;13.90;99.90
7216;DHT22;3649;48.798;9.798;2023-05-02T03:15:22;13.90;99.90
7216;DHT22;3649;48.798;9.798;2023-05-02T03:17:51;13.90;99.90
7216;DHT22;3649;48.798;9.798;2023-05-02T03:20:17;13.80;99.90
7216;DHT22;3649;48.798;9.798;2023-05-02T03:22:44;13.80;99.90
7216;DHT22;3649;48.798;9.798;2023-05-02T03:25:11;13.80;99.90
7216;DHT22;3649;48.798;9.798;2023-05-02T03:27:38;13.90;99.90
7216;DHT22;3649;48.798;9.798;2023-05-02T03:30:06;13.90;99.90
7216;DHT22;3649;48.798;9.798;2023-05-02T03:32:33;14.00;99.90
7216;DHT22;3649;48.798;9.798;2023-05-02T03:34:59;13.90;99.90
7216;DHT22;3649;48.798;9.798;2023-05-02T03:37:26;13.90;99.90
7216;DHT22;3649;48.798;9.798;2023-05-02T03:39:53;13.90;99.90
7216;DHT22;3649;48.798;9.798;2023-05-02T03:42:21;13.90;99.90
7216;DHT22;3649;48.798;9.798;2023-05-02T03:44:51;14.00;99.90
7216;DHT22;3649;48.798;9.798;2023-05-02T03:47:18;14.00;99.90
7216;DHT22;3649;48.798;9.798;2023-05-02T03:49:45;14.00;99.90
7216;DHT22;3649;48.798;9.798;2023-05-02T03:52:12;14.10;99.90
7216;DHT22;3649;48.798;9.798;2023-05-02T03:54:39;14.10;99.90
7216;DHT22;3649;48.798;9.798;2023-05-02T03:57:06;14.00;99.90
7216;DHT22;3649;48.798;9.798;2023-05-02T03:59:33;14.10;99.90
7216;DHT22;3649;48.798;9.798;2023-05-02T04:02:00;15.10;99.90
7216;DHT22;3649;48.798;9.798;2023-05-02T04:04:27;13.90;99.90
7216;DHT22;3649;48.798;9.798;2023-05-02T04:06:54;13.90;99.90
7216;DHT22;3649;48.798;9.798;2023-05-02T04:09:21;13.90;99.90
7216;DHT22;3649;48.798;9.798;2023-05-02T04:11:51;13.90;99.90
7216;DHT22;3649;48.798;9.798;2023-05-02T04:14:18;14.00;99.90
7216;DHT22;3649;48.798;9.798;2023-05-02T04:16:51;14.00;99.90
7216;DHT22;3649;48.798;9.798;2023-05-02T04:19:18;14.00;99.90
7216;DHT22;3649;48.798;9.798;2023-05-02T04:21:45;14.10;99.90
7216;DHT22;3649;48.798;9.798;2023-05-02T04:24:12;14.00;99.90
7216;DHT22;3649;48.798;9.798;2023-05-02T04:26:39;13.90;99.90
7216;DHT22;3649;48.798;9.798;2023-05-02T04:29:07;13.90;99.90
7216;DHT22;3649;48.798;9.798;2023-05-02T04:31:34;13.90;99.90
7216;DHT22;3649;48.798;9.798;2023-05-02T04:34:01;13.90;99.90
7216;DHT22;3649;48.798;9.798;2023-05-02T04:36:30;13.90;99.90
7216;DHT22;3649;48.798;9.798;2023-05-02T04:38:57;13.90;99.90
7216;DHT22;3649;48.798;9.798;2023-05-02T04:41:24;13.90;99.90
7216;DHT22;3649;48.798;9.798;2023-05-02T04:43:51;14.00;99.90
7216;DHT22;3649;48.798;9.798;2023-05-02T04:46:17;14.00;99.90
7216;DHT22;3649;48.798;9.798;2023-05-02T04:48:44;14.00;99.90
7216;DHT22;3649;48.798;9.798;2023-05-02T04:51:11;13.90;99.90
7216;DHT22;3649;48.798;9.798;2023-05-02T04:53:41;14.00;99.90
7216;DHT22;3649;48.798;9.798;2023-05-02T04:56:08;14.00;99.90
7216;DHT22;3649;48.798;9.798;2023-05-02T04:58:36;13.90;99.90
7216;DHT22;3649;48.798;9.798;2023-05-02T05:01:03;13.80;99.90
7216;DHT22;3649;48.798;9.798;2023-05-02T05:03:30;14.00;99.90
7216;DHT22;3649;48.798;9.798;2023-05-02T05:05:59;13.80;99.90
7216;DHT22;3649;48.798;9.798;2023-05-02T05:08:25;14.20;99.90
7216;DHT22;3649;48.798;9.798;2023-05-02T05:10:53;14.10;99.90
7216;DHT22;3649;48.798;9.798;2023-05-02T05:13:20;14.10;99.90
7216;DHT22;3649;48.798;9.798;2023-05-02T05:15:46;14.20;99.90
7216;DHT22;3649;48.798;9.798;2023-05-02T05:18:13;14.10;99.90
7216;DHT22;3649;48.798;9.798;2023-05-02T05:20:40;14.20;99.90
7216;DHT22;3649;48.798;9.798;2023-05-02T05:23:07;14.20;99.90
7216;DHT22;3649;48.798;9.798;2023-05-02T05:25:34;14.30;99.90
7216;DHT22;3649;48.798;9.798;2023-05-02T05:28:02;14.30;99.90
7216;DHT22;3649;48.798;9.798;2023-05-02T05:30:29;14.20;99.90
7216;DHT22;3649;48.798;9.798;2023-05-02T05:32:56;14.20;99.90
7216;DHT22;3649;48.798;9.798;2023-05-02T05:35:26;14.30;99.90
7216;DHT22;3649;48.798;9.798;2023-05-02T05:37:53;14.30;99.90
7216;DHT22;3649;48.798;9.798;2023-05-02T05:40:20;14.30;99.90
7216;DHT22;3649;48.798;9.798;2023-05-02T05:42:47;14.30;99.90
7216;DHT22;3649;48.798;9.798;2023-05-02T05:45:14;14.30;99.90
7216;DHT22;3649;48.798;9.798;2023-05-02T05:47:42;14.20;99.90
7216;DHT22;3649;48.798;9.798;2023-05-02T05:50:09;14.20;99.90
7216;DHT22;3649;48.798;9.798;2023-05-02T05:52:36;14.20;99.90
7216;DHT22;3649;48.798;9.798;2023-05-02T05:55:04;14.20;99.90
7216;DHT22;3649;48.798;9.798;2023-05-02T05:57:31;14.30;99.90
7216;DHT22;3649;48.798;9.798;2023-05-02T05:59:58;14.40;99.90
7216;DHT22;3649;48.798;9.798;2023-05-02T06:02:25;14.40;99.90
7216;DHT22;3649;48.798;9.798;2023-05-02T06:04:52;14.40;99.90
7216;DHT22;3649;48.798;9.798;2023-05-02T06:07:19;14.40;99.90
7216;DHT22;3649;48.798;9.798;2023-05-02T06:09:46;14.30;99.90
7216;DHT22;3649;48.798;9.798;2023-05-02T06:12:13;14.40;99.90
7216;DHT22;3649;48.798;9.798;2023-05-02T06:14:42;14.50;99.90
7216;DHT22;3649;48.798;9.798;2023-05-02T06:17:09;14.40;99.90
7216;DHT22;3649;48.798;9.798;2023-05-02T06:19:36;14.40;99.90
7216;DHT22;3649;48.798;9.798;2023-05-02T06:22:03;14.40;99.90
7216;DHT22;3649;48.798;9.798;2023-05-02T06:24:33;15.50;99.90
7216;DHT22;3649;48.798;9.798;2023-05-02T06:27:00;14.50;99.90
7216;DHT22;3649;48.798;9.798;2023-05-02T06:29:27;14.50;99.90
7216;DHT22;3649;48.798;9.798;2023-05-02T06:31:55;14.50;99.90
7216;DHT22;3649;48.798;9.798;2023-05-02T06:34:22;14.40;99.90
7216;DHT22;3649;48.798;9.798;2023-05-02T06:36:54;14.40;99.90
7216;DHT22;3649;48.798;9.798;2023-05-02T06:39:22;14.50;99.90
7216;DHT22;3649;48.798;9.798;2023-05-02T06:41:49;14.50;99.90
7216;DHT22;3649;48.798;9.798;2023-05-02T06:44:16;14.60;99.90
7216;DHT22;3649;48.798;9.798;2023-05-02T06:46:43;14.60;99.90
7216;DHT22;3649;48.798;9.798;2023-05-02T06:49:10;14.60;99.90
7216;DHT22;3649;48.798;9.798;2023-05-02T06:51:37;14.70;99.90
7216;DHT22;3649;48.798;9.798;2023-05-02T06:54:04;14.80;99.90
7216;DHT22;3649;48.798;9.798;2023-05-02T06:56:31;14.80;99.90
7216;DHT22;3649;48.798;9.798;2023-05-02T06:58:58;14.80;99.90
7216;DHT22;3649;48.798;9.798;2023-05-02T07:01:25;14.90;99.90
7216;DHT22;3649;48.798;9.798;2023-05-02T07:03:52;14.90;99.90
7216;DHT22;3649;48.798;9.798;2023-05-02T07:06:20;14.90;99.90
7216;DHT22;3649;48.798;9.798;2023-05-02T07:08:47;14.80;99.90
7216;DHT22;3649;48.798;9.798;2023-05-02T07:11:14;14.80;99.90
7216;DHT22;3649;48.798;9.798;2023-05-02T07:13:42;14.80;99.90
7216;DHT22;3649;48.798;9.798;2023-05-02T07:16:09;14.90;99.90
7216;DHT22;3649;48.798;9.798;2023-05-02T07:18:36;15.00;99.90
7216;DHT22;3649;48.798;9.798;2023-05-02T07:21:03;15.00;99.90
7216;DHT22;3649;48.798;9.798;2023-05-02T07:23:31;15.10;99.90
7216;DHT22;3649;48.798;9.798;2023-05-02T07:25:58;15.20;99.90
7216;DHT22;3649;48.798;9.798;2023-05-02T07:28:24;15.20;99.90
7216;DHT22;3649;48.798;9.798;2023-05-02T07:30:51;15.20;99.90
7216;DHT22;3649;48.798;9.798;2023-05-02T07:33:18;15.20;99.90
7216;DHT22;3649;48.798;9.798;2023-05-02T07:35:45;15.20;99.90
7216;DHT22;3649;48.798;9.798;2023-05-02T07:38:12;15.20;99.90
7216;DHT22;3649;48.798;9.798;2023-05-02T07:40:39;15.20;99.90
7216;DHT22;3649;48.798;9.798;2023-05-02T07:43:06;15.20;99.90
7216;DHT22;3649;48.798;9.798;2023-05-02T07:45:36;15.10;99.90
7216;DHT22;3649;48.798;9.798;2023-05-02T07:48:03;15.20;99.90
7216;DHT22;3649;48.798;9.798;2023-05-02T07:50:30;15.30;99.90
7216;DHT22;3649;48.798;9.798;2023-05-02T07:52:57;15.30;99.90
7216;DHT22;3649;48.798;9.798;2023-05-02T07:55:24;15.30;99.90
7216;DHT22;3649;48.798;9.798;2023-05-02T07:57:52;15.30;99.90
7216;DHT22;3649;48.798;9.798;2023-05-02T08:00:19;15.30;99.90
7216;DHT22;3649;48.798;9.798;2023-05-02T08:02:46;15.40;99.90
7216;DHT22;3649;48.798;9.798;2023-05-02T08:05:13;15.40;99.90
7216;DHT22;3649;48.798;9.798;2023-05-02T08:07:40;15.40;99.90
7216;DHT22;3649;48.798;9.798;2023-05-02T08:10:08;15.40;99.90
7216;DHT22;3649;48.798;9.798;2023-05-02T08:12:40;15.50;99.90
7216;DHT22;3649;48.798;9.798;2023-05-02T08:15:09;15.50;99.90
7216;DHT22;3649;48.798;9.798;2023-05-02T08:17:37;15.50;99.90
7216;DHT22;3649;48.798;9.798;2023-05-02T08:20:04;15.50;99.90
7216;DHT22;3649;48.798;9.798;2023-05-02T08:22:31;15.60;99.90
7216;DHT22;3649;48.798;9.798;2023-05-02T08:24:58;15.60;99.90
7216;DHT22;3649;48.798;9.798;2023-05-02T08:27:25;15.60;99.90
7216;DHT22;3649;48.798;9.798;2023-05-02T08:29:52;15.60;99.90
7216;DHT22;3649;48.798;9.798;2023-05-02T08:32:19;15.60;99.90
7216;DHT22;3649;48.798;9.798;2023-05-02T08:34:46;15.70;99.90
7216;DHT22;3649;48.798;9.798;2023-05-02T08:37:13;15.80;99.90
7216;DHT22;3649;48.798;9.798;2023-05-02T08:39:40;15.80;99.90
7216;DHT22;3649;48.798;9.798;2023-05-02T08:42:07;15.90;99.90
7216;DHT22;3649;48.798;9.798;2023-05-02T08:44:34;16.00;99.90
7216;DHT22;3649;48.798;9.798;2023-05-02T08:47:02;15.90;99.90
7216;DHT22;3649;48.798;9.798;2023-05-02T08:49:30;15.90;99.90
7216;DHT22;3649;48.798;9.798;2023-05-02T08:51:59;16.00;99.90
7216;DHT22;3649;48.798;9.798;2023-05-02T08:54:25;16.10;99.90
7216;DHT22;3649;48.798;9.798;2023-05-02T08:56:53;16.10;99.90
7216;DHT22;3649;48.798;9.798;2023-05-02T08:59:20;16.10;99.90
7216;DHT22;3649;48.798;9.798;2023-05-02T09:01:48;16.10;99.90
7216;DHT22;3649;48.798;9.798;2023-05-02T09:04:23;16.20;99.90
7216;DHT22;3649;48.798;9.798;2023-05-02T09:06:50;16.30;99.90
7216;DHT22;3649;48.798;9.798;2023-05-02T09:09:17;16.30;99.90
7216;DHT22;3649;48.798;9.798;2023-05-02T09:11:46;16.30;99.90
7216;DHT22;3649;48.798;9.798;2023-05-02T09:14:15;16.40;99.90
7216;DHT22;3649;48.798;9.798;2023-05-02T09:16:42;16.40;99.90
7216;DHT22;3649;48.798;9.798;2023-05-02T09:19:10;16.50;99.90
7216;DHT22;3649;48.798;9.798;2023-05-02T09:21:49;16.50;99.90
7216;DHT22;3649;48.798;9.798;2023-05-02T09:24:20;16.50;99.90
7216;DHT22;3649;48.798;9.798;2023-05-02T09:27:04;16.60;99.90
7216;DHT22;3649;48.798;9.798;2023-05-02T09:29:32;16.70;99.90
7216;DHT22;3649;48.798;9.798;2023-05-02T09:32:06;16.70;99.90
7216;DHT22;3649;48.798;9.798;2023-05-02T09:34:34;16.70;99.90
7216;DHT22;3649;48.798;9.798;2023-05-02T09:37:03;16.30;99.90
7216;DHT22;3649;48.798;9.798;2023-05-02T09:39:31;16.90;99.90
7216;DHT22;3649;48.798;9.798;2023-05-02T09:41:58;16.90;99.90
7216;DHT22;3649;48.798;9.798;2023-05-02T09:44:34;17.00;99.90
7216;DHT22;3649;48.798;9.798;2023-05-02T09:47:01;17.00;99.90
7216;DHT22;3649;48.798;9.798;2023-05-02T09:49:42;16.90;99.90
7216;DHT22;3649;48.798;9.798;2023-05-02T09:52:17;16.90;99.90
7216;DHT22;3649;48.798;9.798;2023-05-02T09:54:45;16.90;99.90
7216;DHT22;3649;48.798;9.798;2023-05-02T09:57:13;16.90;99.90
7216;DHT22;3649;48.798;9.798;2023-05-02T09:59:40;17.00;99.90
7216;DHT22;3649;48.798;9.798;2023-05-02T10:02:07;17.10;99.90
7216;DHT22;3649;48.798;9.798;2023-05-02T10:04:37;17.00;99.90
7216;DHT22;3649;48.798;9.798;2023-05-02T10:07:06;17.10;99.90
7216;DHT22;3649;48.798;9.798;2023-05-02T10:09:39;17.20;99.90
7216;DHT22;3649;48.798;9.798;2023-05-02T10:12:08;17.20;99.90
7216;DHT22;3649;48.798;9.798;2023-05-02T10:14:38;17.20;99.90
7216;DHT22;3649;48.798;9.798;2023-05-02T10:17:11;17.30;99.90
7216;DHT22;3649;48.798;9.798;2023-05-02T10:19:56;17.30;99.90
7216;DHT22;3649;48.798;9.798;2023-05-02T10:22:23;17.30;99.90
7216;DHT22;3649;48.798;9.798;2023-05-02T10:24:52;17.30;99.90
7216;DHT22;3649;48.798;9.798;2023-05-02T10:27:19;17.30;99.90
7216;DHT22;3649;48.798;9.798;2023-05-02T10:29:47;17.30;99.90
7216;DHT22;3649;48.798;9.798;2023-05-02T10:32:17;17.30;99.90
7216;DHT22;3649;48.798;9.798;2023-05-02T10:34:45;17.40;99.90
7216;DHT22;3649;48.798;9.798;2023-05-02T10:37:14;17.50;99.90
7216;DHT22;3649;48.798;9.798;2023-05-02T10:39:41;17.50;99.90
7216;DHT22;3649;48.798;9.798;2023-05-02T10:42:08;17.60;99.90
7216;DHT22;3649;48.798;9.798;2023-05-02T10:44:40;17.60;99.90
7216;DHT22;3649;48.798;9.798;2023-05-02T10:47:23;17.70;99.90
7216;DHT22;3649;48.798;9.798;2023-05-02T10:52:31;17.80;99.90
7216;DHT22;3649;48.798;9.798;2023-05-02T10:55:19;17.80;99.90
7216;DHT22;3649;48.798;9.798;2023-05-02T11:00:25;17.90;99.90
7216;DHT22;3649;48.798;9.798;2023-05-02T11:02:52;17.90;99.90
7216;DHT22;3649;48.798;9.798;2023-05-02T11:05:21;18.00;99.90
7216;DHT22;3649;48.798;9.798;2023-05-02T11:07:49;18.00;99.90
7216;DHT22;3649;48.798;9.798;2023-05-02T11:10:36;18.10;99.90
7216;DHT22;3649;48.798;9.798;2023-05-02T11:13:03;18.10;99.90
7216;DHT22;3649;48.798;9.798;2023-05-02T11:18:02;18.10;99.90
7216;DHT22;3649;48.798;9.798;2023-05-02T11:20:29;18.20;99.90
7216;DHT22;3649;48.798;9.798;2023-05-02T11:23:24;18.20;99.90
7216;DHT22;3649;48.798;9.798;2023-05-02T11:25:56;18.30;99.90
7216;DHT22;3649;48.798;9.798;2023-05-02T11:28:39;18.40;99.90
7216;DHT22;3649;48.798;9.798;2023-05-02T11:33:57;18.40;99.90
7216;DHT22;3649;48.798;9.798;2023-05-02T11:36:34;18.40;99.90
7216;DHT22;3649;48.798;9.798;2023-05-02T11:39:02;18.40;99.90
7216;DHT22;3649;48.798;9.798;2023-05-02T11:41:38;18.30;99.90
7216;DHT22;3649;48.798;9.798;2023-05-02T11:44:06;18.20;99.90
7216;DHT22;3649;48.798;9.798;2023-05-02T11:46:37;18.00;99.90
7216;DHT22;3649;48.798;9.798;2023-05-02T11:49:05;17.90;99.90
7216;DHT22;3649;48.798;9.798;2023-05-02T11:51:36;17.80;99.90
7216;DHT22;3649;48.798;9.798;2023-05-02T11:54:03;17.70;99.90
7216;DHT22;3649;48.798;9.798;2023-05-02T11:56:33;17.60;99.90
7216;DHT22;3649;48.798;9.798;2023-05-02T11:59:01;17.60;99.90
7216;DHT22;3649;48.798;9.798;2023-05-02T12:01:29;17.50;99.90
7216;DHT22;3649;48.798;9.798;2023-05-02T12:04:07;17.70;99.90
7216;DHT22;3649;48.798;9.798;2023-05-02T12:06:34;17.80;99.90
7216;DHT22;3649;48.798;9.798;2023-05-02T12:09:14;17.80;99.90
7216;DHT22;3649;48.798;9.798;2023-05-02T12:11:51;17.90;99.90
7216;DHT22;3649;48.798;9.798;2023-05-02T12:14:28;18.00;99.90
7216;DHT22;3649;48.798;9.798;2023-05-02T12:16:59;18.10;99.90
7216;DHT22;3649;48.798;9.798;2023-05-02T12:19:27;18.10;99.90
7216;DHT22;3649;48.798;9.798;2023-05-02T12:21:54;18.20;99.90
7216;DHT22;3649;48.798;9.798;2023-05-02T12:24:21;18.20;99.90
7216;DHT22;3649;48.798;9.798;2023-05-02T12:26:49;18.30;99.90
7216;DHT22;3649;48.798;9.798;2023-05-02T12:29:17;18.40;99.90
7216;DHT22;3649;48.798;9.798;2023-05-02T12:31:51;18.50;99.90
7216;DHT22;3649;48.798;9.798;2023-05-02T12:34:32;18.50;99.90
7216;DHT22;3649;48.798;9.798;2023-05-02T12:36:59;18.50;99.90
7216;DHT22;3649;48.798;9.798;2023-05-02T12:39:40;18.50;99.90
7216;DHT22;3649;48.798;9.798;2023-05-02T12:42:09;18.50;99.90
7216;DHT22;3649;48.798;9.798;2023-05-02T12:44:38;18.40;99.90
7216;DHT22;3649;48.798;9.798;2023-05-02T12:47:07;18.40;99.90
7216;DHT22;3649;48.798;9.798;2023-05-02T12:49:50;18.40;99.90
7216;DHT22;3649;48.798;9.798;2023-05-02T12:52:18;18.40;99.90
7216;DHT22;3649;48.798;9.798;2023-05-02T12:54:45;18.40;99.90
7216;DHT22;3649;48.798;9.798;2023-05-02T12:57:25;18.30;99.90
7216;DHT22;3649;48.798;9.798;2023-05-02T12:59:52;18.30;99.90
7216;DHT22;3649;48.798;9.798;2023-05-02T13:02:22;18.30;99.90
7216;DHT22;3649;48.798;9.798;2023-05-02T13:04:49;18.20;99.90
7216;DHT22;3649;48.798;9.798;2023-05-02T13:07:17;18.20;99.90
7216;DHT22;3649;48.798;9.798;2023-05-02T13:09:43;18.20;99.90
7216;DHT22;3649;48.798;9.798;2023-05-02T13:12:10;18.20;99.90
7216;DHT22;3649;48.798;9.798;2023-05-02T13:14:38;18.10;99.90
7216;DHT22;3649;48.798;9.798;2023-05-02T13:17:05;18.10;99.90
7216;DHT22;3649;48.798;9.798;2023-05-02T13:19:34;18.10;99.90
7216;DHT22;3649;48.798;9.798;2023-05-02T13:22:04;18.00;99.90
7216;DHT22;3649;48.798;9.798;2023-05-02T13:24:31;18.00;99.90
7216;DHT22;3649;48.798;9.798;2023-05-02T13:26:58;18.00;99.90
7216;DHT22;3649;48.798;9.798;2023-05-02T13:29:25;17.90;99.90
7216;DHT22;3649;48.798;9.798;2023-05-02T13:31:52;17.90;99.90
7216;DHT22;3649;48.798;9.798;2023-05-02T13:34:18;17.90;99.90
7216;DHT22;3649;48.798;9.798;2023-05-02T13:36:45;17.90;99.90
7216;DHT22;3649;48.798;9.798;2023-05-02T13:39:12;17.90;99.90
7216;DHT22;3649;48.798;9.798;2023-05-02T13:41:39;17.90;99.90
7216;DHT22;3649;48.798;9.798;2023-05-02T13:44:07;17.90;99.90
7216;DHT22;3649;48.798;9.798;2023-05-02T13:46:35;17.90;99.90
7216;DHT22;3649;48.798;9.798;2023-05-02T13:49:03;18.00;99.90
7216;DHT22;3649;48.798;9.798;2023-05-02T13:51:33;18.00;99.90
7216;DHT22;3649;48.798;9.798;2023-05-02T13:54:00;18.10;99.90
7216;DHT22;3649;48.798;9.798;2023-05-02T13:56:27;18.00;99.90
7216;DHT22;3649;48.798;9.798;2023-05-02T13:58:54;18.10;99.90
7216;DHT22;3649;48.798;9.798;2023-05-02T14:01:21;18.00;99.90
7216;DHT22;3649;48.798;9.798;2023-05-02T14:03:49;18.10;99.90
7216;DHT22;3649;48.798;9.798;2023-05-02T14:06:16;18.10;99.90
7216;DHT22;3649;48.798;9.798;2023-05-02T14:08:43;18.10;99.90
7216;DHT22;3649;48.798;9.798;2023-05-02T14:11:11;18.10;99.90
7216;DHT22;3649;48.798;9.798;2023-05-02T14:13:37;18.10;99.90
7216;DHT22;3649;48.798;9.798;2023-05-02T14:16:04;18.00;99.90
7216;DHT22;3649;48.798;9.798;2023-05-02T14:18:32;18.00;99.90
7216;DHT22;3649;48.798;9.798;2023-05-02T14:20:59;18.00;99.90
7216;DHT22;3649;48.798;9.798;2023-05-02T14:23:26;18.10;99.90
7216;DHT22;3649;48.798;9.798;2023-05-02T14:25:55;18.00;99.90
7216;DHT22;3649;48.798;9.798;2023-05-02T14:28:22;18.10;99.90
7216;DHT22;3649;48.798;9.798;2023-05-02T14:30:49;18.10;99.90
7216;DHT22;3649;48.798;9.798;2023-05-02T14:33:16;18.20;99.90
7216;DHT22;3649;48.798;9.798;2023-05-02T14:35:43;18.30;99.90
7216;DHT22;3649;48.798;9.798;2023-05-02T14:38:10;18.30;99.90
7216;DHT22;3649;48.798;9.798;2023-05-02T14:40:37;18.30;99.90
7216;DHT22;3649;48.798;9.798;2023-05-02T14:43:04;18.30;99.90
7216;DHT22;3649;48.798;9.798;2023-05-02T14:45:31;18.30;99.90
7216;DHT22;3649;48.798;9.798;2023-05-02T14:47:58;18.40;99.90
7216;DHT22;3649;48.798;9.798;2023-05-02T14:50:25;18.40;99.90
7216;DHT22;3649;48.798;9.798;2023-05-02T14:52:52;18.40;99.90
7216;DHT22;3649;48.798;9.798;2023-05-02T14:55:19;18.50;99.90
7216;DHT22;3649;48.798;9.798;2023-05-02T14:57:46;18.50;99.90
7216;DHT22;3649;48.798;9.798;2023-05-02T15:00:13;18.60;99.90
7216;DHT22;3649;48.798;9.798;2023-05-02T15:02:41;18.60;99.90
7216;DHT22;3649;48.798;9.798;2023-05-02T15:05:08;18.60;99.90
7216;DHT22;3649;48.798;9.798;2023-05-02T15:07:38;18.60;99.90
7216;DHT22;3649;48.798;9.798;2023-05-02T15:10:05;18.60;99.90
7216;DHT22;3649;48.798;9.798;2023-05-02T15:12:32;18.60;99.90
7216;DHT22;3649;48.798;9.798;2023-05-02T15:14:59;18.70;99.90
7216;DHT22;3649;48.798;9.798;2023-05-02T15:17:26;18.70;99.90
7216;DHT22;3649;48.798;9.798;2023-05-02T15:19:53;18.60;99.90
7216;DHT22;3649;48.798;9.798;2023-05-02T15:22:23;18.60;99.90
7216;DHT22;3649;48.798;9.798;2023-05-02T15:24:51;18.60;99.90
7216;DHT22;3649;48.798;9.798;2023-05-02T15:27:18;18.60;99.90
7216;DHT22;3649;48.798;9.798;2023-05-02T15:29:45;18.60;99.90
7216;DHT22;3649;48.798;9.798;2023-05-02T15:32:12;18.60;99.90
7216;DHT22;3649;48.798;9.798;2023-05-02T15:34:39;18.60;99.90
7216;DHT22;3649;48.798;9.798;2023-05-02T15:37:06;18.60;99.90
7216;DHT22;3649;48.798;9.798;2023-05-02T15:39:33;18.70;99.90
7216;DHT22;3649;48.798;9.798;2023-05-02T15:42:05;18.70;99.90
7216;DHT22;3649;48.798;9.798;2023-05-02T15:44:34;18.60;99.90
7216;DHT22;3649;48.798;9.798;2023-05-02T15:47:02;18.30;99.90
7216;DHT22;3649;48.798;9.798;2023-05-02T15:49:29;18.60;99.90
7216;DHT22;3649;48.798;9.798;2023-05-02T15:51:59;18.60;99.90
7216;DHT22;3649;48.798;9.798;2023-05-02T15:54:25;18.60;99.90
7216;DHT22;3649;48.798;9.798;2023-05-02T15:56:52;18.60;99.90
7216;DHT22;3649;48.798;9.798;2023-05-02T15:59:20;18.60;99.90
7216;DHT22;3649;48.798;9.798;2023-05-02T16:01:47;18.70;99.90
7216;DHT22;3649;48.798;9.798;2023-05-02T16:04:14;18.70;99.90
7216;DHT22;3649;48.798;9.798;2023-05-02T16:06:41;18.70;99.90
7216;DHT22;3649;48.798;9.798;2023-05-02T16:09:08;18.70;99.90
7216;DHT22;3649;48.798;9.798;2023-05-02T16:11:35;18.70;99.90
7216;DHT22;3649;48.798;9.798;2023-05-02T16:14:02;18.70;99.90
7216;DHT22;3649;48.798;9.798;2023-05-02T16:16:29;18.60;99.90
7216;DHT22;3649;48.798;9.798;2023-05-02T16:18:56;18.60;99.90
7216;DHT22;3649;48.798;9.798;2023-05-02T16:21:23;18.60;99.90
7216;DHT22;3649;48.798;9.798;2023-05-02T16:23:50;18.50;99.90
7216;DHT22;3649;48.798;9.798;2023-05-02T16:26:17;18.50;99.90
7216;DHT22;3649;48.798;9.798;2023-05-02T16:28:44;18.50;99.90
7216;DHT22;3649;48.798;9.798;2023-05-02T16:31:11;18.50;99.90
7216;DHT22;3649;48.798;9.798;2023-05-02T16:33:40;18.50;99.90
7216;DHT22;3649;48.798;9.798;2023-05-02T16:36:08;18.50;99.90
7216;DHT22;3649;48.798;9.798;2023-05-02T16:38:35;18.50;99.90
7216;DHT22;3649;48.798;9.798;2023-05-02T16:41:03;18.40;99.90